sensor_id;sensor_type;location;lat;lon;timestamp;P1;durP1;ratioP1;P2;durP2;ratioP2
55362;SDS011;41244;49.242;9.060;2022-08-02T00:00:26;4.85;;;2.72;;
55362;SDS011;41244;49.242;9.060;2022-08-02T00:02:52;3.45;;;3.10;;
55362;SDS011;41244;49.242;9.060;2022-08-02T00:05:17;3.47;;;3.00;;
55362;SDS011;41244;49.242;9.060;2022-08-02T00:07:43;3.30;;;3.00;;
55362;SDS011;41244;49.242;9.060;2022-08-02T00:10:09;4.07;;;3.20;;
55362;SDS011;41244;49.242;9.060;2022-08-02T00:12:37;3.78;;;3.03;;
55362;SDS011;41244;49.242;9.060;2022-08-02T00:15:04;3.70;;;3.03;;
55362;SDS011;41244;49.242;9.060;2022-08-02T00:17:31;3.47;;;2.92;;
55362;SDS011;41244;49.242;9.060;2022-08-02T00:19:57;7.10;;;4.35;;
55362;SDS011;41244;49.242;9.060;2022-08-02T00:22:23;4.05;;;3.13;;
55362;SDS011;41244;49.242;9.060;2022-08-02T00:24:49;3.55;;;2.85;;
55362;SDS011;41244;49.242;9.060;2022-08-02T00:27:14;5.07;;;2.95;;
55362;SDS011;41244;49.242;9.060;2022-08-02T00:29:40;3.17;;;2.80;;
55362;SDS011;41244;49.242;9.060;2022-08-02T00:32:06;4.95;;;3.60;;
55362;SDS011;41244;49.242;9.060;2022-08-02T00:34:32;5.57;;;3.58;;
55362;SDS011;41244;49.242;9.060;2022-08-02T00:36:57;4.10;;;3.15;;
55362;SDS011;41244;49.242;9.060;2022-08-02T00:39:23;3.42;;;2.92;;
55362;SDS011;41244;49.242;9.060;2022-08-02T00:41:50;5.35;;;2.90;;
55362;SDS011;41244;49.242;9.060;2022-08-02T00:44:17;3.33;;;3.03;;
55362;SDS011;41244;49.242;9.060;2022-08-02T00:46:45;4.95;;;3.20;;
55362;SDS011;41244;49.242;9.060;2022-08-02T00:49:11;3.42;;;3.05;;
55362;SDS011;41244;49.242;9.060;2022-08-02T00:51:38;4.05;;;3.17;;
55362;SDS011;41244;49.242;9.060;2022-08-02T00:54:05;3.58;;;2.95;;
55362;SDS011;41244;49.242;9.060;2022-08-02T00:56:31;4.25;;;3.38;;
55362;SDS011;41244;49.242;9.060;2022-08-02T00:58:58;3.67;;;3.35;;
55362;SDS011;41244;49.242;9.060;2022-08-02T01:01:24;4.68;;;3.33;;
55362;SDS011;41244;49.242;9.060;2022-08-02T01:04:11;3.40;;;3.00;;
55362;SDS011;41244;49.242;9.060;2022-08-02T01:06:40;4.85;;;3.50;;
55362;SDS011;41244;49.242;9.060;2022-08-02T01:09:06;5.55;;;3.25;;
55362;SDS011;41244;49.242;9.060;2022-08-02T01:11:33;3.45;;;3.15;;
55362;SDS011;41244;49.242;9.060;2022-08-02T01:14:01;4.53;;;4.10;;
55362;SDS011;41244;49.242;9.060;2022-08-02T01:16:39;6.22;;;4.68;;
55362;SDS011;41244;49.242;9.060;2022-08-02T01:19:26;4.80;;;3.42;;
55362;SDS011;41244;49.242;9.060;2022-08-02T01:29:58;3.38;;;3.08;;
55362;SDS011;41244;49.242;9.060;2022-08-02T01:32:27;6.03;;;3.67;;
55362;SDS011;41244;49.242;9.060;2022-08-02T01:34:59;4.47;;;3.40;;
55362;SDS011;41244;49.242;9.060;2022-08-02T01:37:37;5.82;;;3.83;;
55362;SDS011;41244;49.242;9.060;2022-08-02T01:40:05;4.78;;;3.60;;
55362;SDS011;41244;49.242;9.060;2022-08-02T01:42:36;4.00;;;3.50;;
55362;SDS011;41244;49.242;9.060;2022-08-02T01:45:06;4.00;;;3.60;;
55362;SDS011;41244;49.242;9.060;2022-08-02T01:47:34;4.50;;;4.10;;
55362;SDS011;41244;49.242;9.060;2022-08-02T01:50:04;4.47;;;4.05;;
55362;SDS011;41244;49.242;9.060;2022-08-02T01:52:32;4.30;;;3.70;;
55362;SDS011;41244;49.242;9.060;2022-08-02T01:57:39;4.68;;;3.67;;
55362;SDS011;41244;49.242;9.060;2022-08-02T02:00:13;4.90;;;3.65;;
55362;SDS011;41244;49.242;9.060;2022-08-02T02:02:44;5.55;;;4.15;;
55362;SDS011;41244;49.242;9.060;2022-08-02T02:05:15;4.40;;;4.00;;
55362;SDS011;41244;49.242;9.060;2022-08-02T02:07:43;5.85;;;3.92;;
55362;SDS011;41244;49.242;9.060;2022-08-02T02:10:12;4.80;;;3.85;;
55362;SDS011;41244;49.242;9.060;2022-08-02T02:12:41;4.82;;;4.20;;
55362;SDS011;41244;49.242;9.060;2022-08-02T02:15:11;4.15;;;3.85;;
55362;SDS011;41244;49.242;9.060;2022-08-02T02:17:38;4.25;;;3.60;;
55362;SDS011;41244;49.242;9.060;2022-08-02T02:20:09;4.72;;;4.07;;
55362;SDS011;41244;49.242;9.060;2022-08-02T02:22:42;8.00;;;4.18;;
55362;SDS011;41244;49.242;9.060;2022-08-02T02:25:08;6.00;;;4.20;;
55362;SDS011;41244;49.242;9.060;2022-08-02T02:27:36;4.35;;;3.90;;
55362;SDS011;41244;49.242;9.060;2022-08-02T02:30:04;4.80;;;4.30;;
55362;SDS011;41244;49.242;9.060;2022-08-02T02:32:31;4.72;;;4.28;;
55362;SDS011;41244;49.242;9.060;2022-08-02T02:34:57;5.55;;;4.50;;
55362;SDS011;41244;49.242;9.060;2022-08-02T02:37:24;6.72;;;4.32;;
55362;SDS011;41244;49.242;9.060;2022-08-02T02:39:52;5.88;;;4.40;;
55362;SDS011;41244;49.242;9.060;2022-08-02T02:42:21;4.72;;;4.20;;
55362;SDS011;41244;49.242;9.060;2022-08-02T02:44:53;5.60;;;4.38;;
55362;SDS011;41244;49.242;9.060;2022-08-02T02:47:19;4.85;;;4.45;;
55362;SDS011;41244;49.242;9.060;2022-08-02T02:49:46;4.47;;;4.07;;
55362;SDS011;41244;49.242;9.060;2022-08-02T02:52:13;5.35;;;4.63;;
55362;SDS011;41244;49.242;9.060;2022-08-02T02:54:41;6.18;;;4.40;;
55362;SDS011;41244;49.242;9.060;2022-08-02T02:57:13;4.30;;;3.95;;
55362;SDS011;41244;49.242;9.060;2022-08-02T02:59:39;8.80;;;4.70;;
55362;SDS011;41244;49.242;9.060;2022-08-02T03:02:05;5.07;;;4.68;;
55362;SDS011;41244;49.242;9.060;2022-08-02T03:04:31;5.03;;;4.40;;
55362;SDS011;41244;49.242;9.060;2022-08-02T03:06:58;4.70;;;4.30;;
55362;SDS011;41244;49.242;9.060;2022-08-02T03:09:25;4.65;;;4.25;;
55362;SDS011;41244;49.242;9.060;2022-08-02T03:11:52;4.88;;;4.47;;
55362;SDS011;41244;49.242;9.060;2022-08-02T03:14:19;5.20;;;4.43;;
55362;SDS011;41244;49.242;9.060;2022-08-02T03:16:48;4.95;;;4.45;;
55362;SDS011;41244;49.242;9.060;2022-08-02T03:19:19;4.82;;;4.43;;
55362;SDS011;41244;49.242;9.060;2022-08-02T03:21:47;4.35;;;4.05;;
55362;SDS011;41244;49.242;9.060;2022-08-02T03:24:13;4.80;;;4.40;;
55362;SDS011;41244;49.242;9.060;2022-08-02T03:26:39;5.97;;;5.35;;
55362;SDS011;41244;49.242;9.060;2022-08-02T03:29:06;5.53;;;5.03;;
55362;SDS011;41244;49.242;9.060;2022-08-02T03:31:32;6.22;;;4.78;;
55362;SDS011;41244;49.242;9.060;2022-08-02T03:33:59;5.68;;;4.85;;
55362;SDS011;41244;49.242;9.060;2022-08-02T03:36:29;6.65;;;5.07;;
55362;SDS011;41244;49.242;9.060;2022-08-02T03:38:57;6.93;;;4.90;;
55362;SDS011;41244;49.242;9.060;2022-08-02T03:41:24;8.40;;;5.07;;
55362;SDS011;41244;49.242;9.060;2022-08-02T03:43:50;8.20;;;5.82;;
55362;SDS011;41244;49.242;9.060;2022-08-02T03:46:18;11.07;;;5.28;;
55362;SDS011;41244;49.242;9.060;2022-08-02T03:48:46;5.70;;;5.03;;
55362;SDS011;41244;49.242;9.060;2022-08-02T03:51:12;6.38;;;5.13;;
55362;SDS011;41244;49.242;9.060;2022-08-02T03:53:38;5.60;;;5.10;;
55362;SDS011;41244;49.242;9.060;2022-08-02T03:56:05;6.20;;;5.43;;
55362;SDS011;41244;49.242;9.060;2022-08-02T03:58:31;5.60;;;4.97;;
55362;SDS011;41244;49.242;9.060;2022-08-02T04:00:57;6.53;;;5.50;;
55362;SDS011;41244;49.242;9.060;2022-08-02T04:03:24;7.63;;;4.93;;
55362;SDS011;41244;49.242;9.060;2022-08-02T04:05:50;5.85;;;5.22;;
55362;SDS011;41244;49.242;9.060;2022-08-02T04:08:16;7.47;;;5.72;;
55362;SDS011;41244;49.242;9.060;2022-08-02T04:10:42;8.15;;;4.78;;
55362;SDS011;41244;49.242;9.060;2022-08-02T04:13:27;5.43;;;4.90;;
55362;SDS011;41244;49.242;9.060;2022-08-02T04:15:57;7.07;;;4.90;;
55362;SDS011;41244;49.242;9.060;2022-08-02T04:18:34;5.72;;;5.10;;
55362;SDS011;41244;49.242;9.060;2022-08-02T04:21:05;9.50;;;5.10;;
55362;SDS011;41244;49.242;9.060;2022-08-02T04:23:32;5.43;;;4.50;;
55362;SDS011;41244;49.242;9.060;2022-08-02T04:25:59;9.40;;;5.18;;
55362;SDS011;41244;49.242;9.060;2022-08-02T04:28:26;8.95;;;4.82;;
55362;SDS011;41244;49.242;9.060;2022-08-02T04:30:52;8.45;;;5.13;;
55362;SDS011;41244;49.242;9.060;2022-08-02T04:33:19;5.38;;;4.88;;
55362;SDS011;41244;49.242;9.060;2022-08-02T04:35:45;6.63;;;4.78;;
55362;SDS011;41244;49.242;9.060;2022-08-02T04:38:12;7.43;;;5.05;;
55362;SDS011;41244;49.242;9.060;2022-08-02T04:40:39;11.13;;;5.10;;
55362;SDS011;41244;49.242;9.060;2022-08-02T04:43:05;9.48;;;4.90;;
55362;SDS011;41244;49.242;9.060;2022-08-02T04:45:31;5.93;;;5.43;;
55362;SDS011;41244;49.242;9.060;2022-08-02T04:47:57;5.93;;;4.60;;
55362;SDS011;41244;49.242;9.060;2022-08-02T04:50:23;8.07;;;4.72;;
55362;SDS011;41244;49.242;9.060;2022-08-02T04:52:49;8.77;;;5.13;;
55362;SDS011;41244;49.242;9.060;2022-08-02T04:55:14;5.32;;;4.72;;
55362;SDS011;41244;49.242;9.060;2022-08-02T04:57:40;6.38;;;5.22;;
55362;SDS011;41244;49.242;9.060;2022-08-02T05:02:50;8.43;;;5.20;;
55362;SDS011;41244;49.242;9.060;2022-08-02T05:05:16;6.32;;;5.05;;
55362;SDS011;41244;49.242;9.060;2022-08-02T05:07:42;7.07;;;5.47;;
55362;SDS011;41244;49.242;9.060;2022-08-02T05:10:08;8.90;;;5.88;;
55362;SDS011;41244;49.242;9.060;2022-08-02T05:12:36;8.13;;;5.82;;
55362;SDS011;41244;49.242;9.060;2022-08-02T05:15:03;7.60;;;6.15;;
55362;SDS011;41244;49.242;9.060;2022-08-02T05:17:29;7.20;;;5.57;;
55362;SDS011;41244;49.242;9.060;2022-08-02T05:19:55;6.43;;;5.50;;
55362;SDS011;41244;49.242;9.060;2022-08-02T05:22:21;7.38;;;6.68;;
55362;SDS011;41244;49.242;9.060;2022-08-02T05:24:47;6.63;;;5.68;;
55362;SDS011;41244;49.242;9.060;2022-08-02T05:27:13;6.30;;;5.28;;
55362;SDS011;41244;49.242;9.060;2022-08-02T05:29:39;5.10;;;4.25;;
55362;SDS011;41244;49.242;9.060;2022-08-02T05:32:04;5.70;;;5.20;;
55362;SDS011;41244;49.242;9.060;2022-08-02T05:34:30;6.70;;;5.68;;
55362;SDS011;41244;49.242;9.060;2022-08-02T05:36:56;7.35;;;5.65;;
55362;SDS011;41244;49.242;9.060;2022-08-02T05:39:22;6.03;;;5.43;;
55362;SDS011;41244;49.242;9.060;2022-08-02T05:41:48;6.97;;;5.38;;
55362;SDS011;41244;49.242;9.060;2022-08-02T05:44:13;5.93;;;5.32;;
55362;SDS011;41244;49.242;9.060;2022-08-02T05:46:39;7.32;;;5.85;;
55362;SDS011;41244;49.242;9.060;2022-08-02T05:49:05;6.85;;;5.80;;
55362;SDS011;41244;49.242;9.060;2022-08-02T05:51:38;7.70;;;5.90;;
55362;SDS011;41244;49.242;9.060;2022-08-02T05:54:22;8.85;;;6.18;;
55362;SDS011;41244;49.242;9.060;2022-08-02T06:00:08;8.20;;;7.07;;
55362;SDS011;41244;49.242;9.060;2022-08-02T06:02:43;7.20;;;5.82;;
55362;SDS011;41244;49.242;9.060;2022-08-02T06:05:38;5.90;;;5.30;;
55362;SDS011;41244;49.242;9.060;2022-08-02T06:08:05;5.60;;;5.10;;
55362;SDS011;41244;49.242;9.060;2022-08-02T06:10:35;5.35;;;4.85;;
55362;SDS011;41244;49.242;9.060;2022-08-02T06:13:07;5.07;;;4.60;;
55362;SDS011;41244;49.242;9.060;2022-08-02T06:15:36;5.03;;;4.53;;
55362;SDS011;41244;49.242;9.060;2022-08-02T06:18:03;4.70;;;4.30;;
55362;SDS011;41244;49.242;9.060;2022-08-02T06:20:30;5.22;;;4.70;;
55362;SDS011;41244;49.242;9.060;2022-08-02T06:23:00;6.68;;;4.32;;
55362;SDS011;41244;49.242;9.060;2022-08-02T06:25:31;5.07;;;4.55;;
55362;SDS011;41244;49.242;9.060;2022-08-02T06:28:03;6.28;;;5.68;;
55362;SDS011;41244;49.242;9.060;2022-08-02T06:30:30;6.47;;;4.40;;
55362;SDS011;41244;49.242;9.060;2022-08-02T06:32:56;5.70;;;4.50;;
55362;SDS011;41244;49.242;9.060;2022-08-02T06:35:24;5.40;;;4.13;;
55362;SDS011;41244;49.242;9.060;2022-08-02T06:41:57;8.10;;;4.22;;
55362;SDS011;41244;49.242;9.060;2022-08-02T06:44:25;4.93;;;3.70;;
55362;SDS011;41244;49.242;9.060;2022-08-02T06:46:51;8.57;;;3.80;;
55362;SDS011;41244;49.242;9.060;2022-08-02T06:49:17;4.45;;;3.50;;
55362;SDS011;41244;49.242;9.060;2022-08-02T06:51:42;4.18;;;3.67;;
55362;SDS011;41244;49.242;9.060;2022-08-02T06:54:08;4.00;;;3.60;;
55362;SDS011;41244;49.242;9.060;2022-08-02T06:56:35;5.00;;;3.80;;
55362;SDS011;41244;49.242;9.060;2022-08-02T06:59:01;5.95;;;3.47;;
55362;SDS011;41244;49.242;9.060;2022-08-02T07:01:26;7.60;;;6.90;;
55362;SDS011;41244;49.242;9.060;2022-08-02T07:45:36;3.70;;;3.10;;
55362;SDS011;41244;49.242;9.060;2022-08-02T07:48:02;3.80;;;3.28;;
55362;SDS011;41244;49.242;9.060;2022-08-02T07:50:28;3.50;;;2.90;;
55362;SDS011;41244;49.242;9.060;2022-08-02T07:52:54;3.35;;;3.05;;
55362;SDS011;41244;49.242;9.060;2022-08-02T07:55:20;3.28;;;3.03;;
55362;SDS011;41244;49.242;9.060;2022-08-02T07:57:46;3.17;;;2.88;;
55362;SDS011;41244;49.242;9.060;2022-08-02T08:00:12;3.55;;;3.25;;
55362;SDS011;41244;49.242;9.060;2022-08-02T08:02:40;3.50;;;3.20;;
55362;SDS011;41244;49.242;9.060;2022-08-02T08:05:06;3.70;;;3.00;;
55362;SDS011;41244;49.242;9.060;2022-08-02T08:07:32;4.57;;;3.05;;
55362;SDS011;41244;49.242;9.060;2022-08-02T08:09:59;3.10;;;2.90;;
55362;SDS011;41244;49.242;9.060;2022-08-02T08:12:25;3.40;;;3.10;;
55362;SDS011;41244;49.242;9.060;2022-08-02T08:14:51;3.40;;;3.10;;
55362;SDS011;41244;49.242;9.060;2022-08-02T08:17:17;3.63;;;2.90;;
55362;SDS011;41244;49.242;9.060;2022-08-02T08:19:44;3.03;;;2.75;;
55362;SDS011;41244;49.242;9.060;2022-08-02T08:22:09;3.90;;;2.80;;
55362;SDS011;41244;49.242;9.060;2022-08-02T08:24:35;5.15;;;2.88;;
55362;SDS011;41244;49.242;9.060;2022-08-02T08:27:03;4.55;;;3.10;;
55362;SDS011;41244;49.242;9.060;2022-08-02T08:29:29;3.00;;;2.70;;
55362;SDS011;41244;49.242;9.060;2022-08-02T08:31:55;4.05;;;3.00;;
55362;SDS011;41244;49.242;9.060;2022-08-02T08:34:21;4.10;;;3.20;;
55362;SDS011;41244;49.242;9.060;2022-08-02T08:36:48;6.78;;;3.00;;
55362;SDS011;41244;49.242;9.060;2022-08-02T08:39:14;3.92;;;3.10;;
55362;SDS011;41244;49.242;9.060;2022-08-02T08:41:41;3.30;;;3.00;;
55362;SDS011;41244;49.242;9.060;2022-08-02T08:44:07;4.00;;;3.15;;
55362;SDS011;41244;49.242;9.060;2022-08-02T08:46:35;6.50;;;3.10;;
55362;SDS011;41244;49.242;9.060;2022-08-02T08:49:02;3.22;;;3.00;;
55362;SDS011;41244;49.242;9.060;2022-08-02T08:51:38;3.92;;;2.70;;
55362;SDS011;41244;49.242;9.060;2022-08-02T08:54:09;5.35;;;2.90;;
55362;SDS011;41244;49.242;9.060;2022-08-02T08:56:40;5.45;;;3.00;;
55362;SDS011;41244;49.242;9.060;2022-08-02T08:59:07;4.50;;;2.80;;
55362;SDS011;41244;49.242;9.060;2022-08-02T09:01:33;5.10;;;2.90;;
55362;SDS011;41244;49.242;9.060;2022-08-02T09:03:59;4.43;;;2.95;;
55362;SDS011;41244;49.242;9.060;2022-08-02T09:06:25;3.65;;;2.90;;
55362;SDS011;41244;49.242;9.060;2022-08-02T09:08:52;3.35;;;2.75;;
55362;SDS011;41244;49.242;9.060;2022-08-02T09:11:18;8.55;;;3.17;;
55362;SDS011;41244;49.242;9.060;2022-08-02T09:13:49;3.20;;;2.97;;
55362;SDS011;41244;49.242;9.060;2022-08-02T09:18:57;5.93;;;3.70;;
55362;SDS011;41244;49.242;9.060;2022-08-02T09:21:23;4.57;;;3.22;;
55362;SDS011;41244;49.242;9.060;2022-08-02T09:23:59;3.22;;;2.70;;
55362;SDS011;41244;49.242;9.060;2022-08-02T09:26:25;4.20;;;2.80;;
55362;SDS011;41244;49.242;9.060;2022-08-02T09:28:52;3.78;;;3.20;;
55362;SDS011;41244;49.242;9.060;2022-08-02T09:31:25;3.67;;;2.90;;
55362;SDS011;41244;49.242;9.060;2022-08-02T09:33:58;5.30;;;3.05;;
55362;SDS011;41244;49.242;9.060;2022-08-02T09:36:25;6.45;;;3.08;;
55362;SDS011;41244;49.242;9.060;2022-08-02T09:38:56;3.70;;;3.20;;
55362;SDS011;41244;49.242;9.060;2022-08-02T09:41:24;3.80;;;3.08;;
55362;SDS011;41244;49.242;9.060;2022-08-02T09:43:52;3.60;;;3.10;;
55362;SDS011;41244;49.242;9.060;2022-08-02T09:46:24;3.65;;;3.25;;
55362;SDS011;41244;49.242;9.060;2022-08-02T09:51:27;21.00;;;3.88;;
55362;SDS011;41244;49.242;9.060;2022-08-02T09:53:58;17.13;;;3.65;;
55362;SDS011;41244;49.242;9.060;2022-08-02T09:56:27;3.33;;;2.95;;
55362;SDS011;41244;49.242;9.060;2022-08-02T09:59:07;12.70;;;9.32;;
55362;SDS011;41244;49.242;9.060;2022-08-02T10:01:34;3.40;;;3.10;;
55362;SDS011;41244;49.242;9.060;2022-08-02T10:04:01;3.75;;;2.90;;
55362;SDS011;41244;49.242;9.060;2022-08-02T10:06:30;5.05;;;3.17;;
55362;SDS011;41244;49.242;9.060;2022-08-02T10:08:56;4.35;;;3.30;;
55362;SDS011;41244;49.242;9.060;2022-08-02T10:11:23;3.10;;;2.80;;
55362;SDS011;41244;49.242;9.060;2022-08-02T10:13:52;3.17;;;2.88;;
55362;SDS011;41244;49.242;9.060;2022-08-02T10:16:19;4.28;;;2.90;;
55362;SDS011;41244;49.242;9.060;2022-08-02T10:18:50;4.63;;;3.20;;
55362;SDS011;41244;49.242;9.060;2022-08-02T10:21:28;3.45;;;2.90;;
55362;SDS011;41244;49.242;9.060;2022-08-02T10:26:39;2.72;;;2.53;;
55362;SDS011;41244;49.242;9.060;2022-08-02T10:29:08;3.22;;;2.80;;
55362;SDS011;41244;49.242;9.060;2022-08-02T10:31:42;4.10;;;2.80;;
55362;SDS011;41244;49.242;9.060;2022-08-02T10:34:28;3.25;;;2.78;;
55362;SDS011;41244;49.242;9.060;2022-08-02T10:37:07;8.63;;;2.97;;
55362;SDS011;41244;49.242;9.060;2022-08-02T10:39:41;3.58;;;3.13;;
55362;SDS011;41244;49.242;9.060;2022-08-02T10:42:08;5.68;;;2.92;;
55362;SDS011;41244;49.242;9.060;2022-08-02T10:44:35;4.82;;;3.00;;
55362;SDS011;41244;49.242;9.060;2022-08-02T10:49:57;61.72;;;7.15;;
55362;SDS011;41244;49.242;9.060;2022-08-02T10:52:28;4.03;;;3.17;;
55362;SDS011;41244;49.242;9.060;2022-08-02T10:57:29;4.72;;;3.42;;
55362;SDS011;41244;49.242;9.060;2022-08-02T11:02:42;3.38;;;2.80;;
55362;SDS011;41244;49.242;9.060;2022-08-02T11:05:15;3.25;;;2.70;;
55362;SDS011;41244;49.242;9.060;2022-08-02T11:07:55;3.20;;;2.70;;
55362;SDS011;41244;49.242;9.060;2022-08-02T11:19:29;5.13;;;2.70;;
55362;SDS011;41244;49.242;9.060;2022-08-02T11:21:24;6.88;;;2.75;;
55362;SDS011;41244;49.242;9.060;2022-08-02T11:23:52;3.30;;;2.88;;
55362;SDS011;41244;49.242;9.060;2022-08-02T11:28:53;5.70;;;3.10;;
55362;SDS011;41244;49.242;9.060;2022-08-02T11:31:19;3.40;;;2.80;;
55362;SDS011;41244;49.242;9.060;2022-08-02T11:33:47;4.00;;;2.63;;
55362;SDS011;41244;49.242;9.060;2022-08-02T11:36:14;4.35;;;3.20;;
55362;SDS011;41244;49.242;9.060;2022-08-02T11:38:40;5.05;;;2.80;;
55362;SDS011;41244;49.242;9.060;2022-08-02T11:41:06;3.63;;;2.42;;
55362;SDS011;41244;49.242;9.060;2022-08-02T11:43:32;4.00;;;2.80;;
55362;SDS011;41244;49.242;9.060;2022-08-02T11:46:10;4.80;;;2.92;;
55362;SDS011;41244;49.242;9.060;2022-08-02T11:48:39;5.20;;;2.70;;
55362;SDS011;41244;49.242;9.060;2022-08-02T11:51:10;3.17;;;2.70;;
55362;SDS011;41244;49.242;9.060;2022-08-02T11:53:52;2.95;;;2.65;;
55362;SDS011;41244;49.242;9.060;2022-08-02T11:56:26;3.08;;;2.78;;
55362;SDS011;41244;49.242;9.060;2022-08-02T12:01:36;39.35;;;6.72;;
55362;SDS011;41244;49.242;9.060;2022-08-02T12:04:03;4.57;;;3.00;;
55362;SDS011;41244;49.242;9.060;2022-08-02T12:06:31;3.45;;;3.13;;
55362;SDS011;41244;49.242;9.060;2022-08-02T12:08:59;3.78;;;2.85;;
55362;SDS011;41244;49.242;9.060;2022-08-02T12:11:37;3.20;;;2.90;;
55362;SDS011;41244;49.242;9.060;2022-08-02T12:14:04;2.95;;;2.60;;
55362;SDS011;41244;49.242;9.060;2022-08-02T12:16:34;5.88;;;2.80;;
55362;SDS011;41244;49.242;9.060;2022-08-02T12:19:21;3.65;;;2.65;;
55362;SDS011;41244;49.242;9.060;2022-08-02T12:24:52;2.63;;;2.45;;
55362;SDS011;41244;49.242;9.060;2022-08-02T12:29:59;3.55;;;2.60;;
55362;SDS011;41244;49.242;9.060;2022-08-02T12:32:30;3.25;;;2.50;;
55362;SDS011;41244;49.242;9.060;2022-08-02T12:34:59;5.80;;;2.75;;
55362;SDS011;41244;49.242;9.060;2022-08-02T12:40:25;72.22;;;6.28;;
55362;SDS011;41244;49.242;9.060;2022-08-02T12:42:56;4.85;;;2.80;;
55362;SDS011;41244;49.242;9.060;2022-08-02T12:45:29;4.90;;;3.15;;
55362;SDS011;41244;49.242;9.060;2022-08-02T12:47:58;7.78;;;2.75;;
55362;SDS011;41244;49.242;9.060;2022-08-02T12:50:26;4.65;;;2.83;;
55362;SDS011;41244;49.242;9.060;2022-08-02T12:53:01;2.70;;;2.50;;
55362;SDS011;41244;49.242;9.060;2022-08-02T12:55:35;3.47;;;2.80;;
55362;SDS011;41244;49.242;9.060;2022-08-02T12:58:11;3.60;;;2.53;;
55362;SDS011;41244;49.242;9.060;2022-08-02T13:00:37;3.17;;;2.85;;
55362;SDS011;41244;49.242;9.060;2022-08-02T13:03:04;2.85;;;2.65;;
55362;SDS011;41244;49.242;9.060;2022-08-02T13:05:31;3.50;;;2.85;;
55362;SDS011;41244;49.242;9.060;2022-08-02T13:08:00;2.70;;;2.50;;
55362;SDS011;41244;49.242;9.060;2022-08-02T13:10:27;3.97;;;3.05;;
55362;SDS011;41244;49.242;9.060;2022-08-02T13:12:52;3.53;;;3.22;;
55362;SDS011;41244;49.242;9.060;2022-08-02T13:15:19;2.80;;;2.60;;
55362;SDS011;41244;49.242;9.060;2022-08-02T13:17:46;4.47;;;2.75;;
55362;SDS011;41244;49.242;9.060;2022-08-02T13:20:12;3.25;;;2.47;;
55362;SDS011;41244;49.242;9.060;2022-08-02T13:22:39;3.15;;;2.53;;
55362;SDS011;41244;49.242;9.060;2022-08-02T13:25:05;3.30;;;2.67;;
55362;SDS011;41244;49.242;9.060;2022-08-02T13:27:31;4.70;;;2.42;;
55362;SDS011;41244;49.242;9.060;2022-08-02T13:29:58;6.03;;;2.70;;
55362;SDS011;41244;49.242;9.060;2022-08-02T13:32:25;2.80;;;2.60;;
55362;SDS011;41244;49.242;9.060;2022-08-02T13:34:52;2.97;;;2.72;;
55362;SDS011;41244;49.242;9.060;2022-08-02T13:37:20;2.80;;;2.60;;
55362;SDS011;41244;49.242;9.060;2022-08-02T13:39:47;9.20;;;2.95;;
55362;SDS011;41244;49.242;9.060;2022-08-02T13:42:13;2.65;;;2.45;;
55362;SDS011;41244;49.242;9.060;2022-08-02T13:44:39;7.50;;;6.57;;
55362;SDS011;41244;49.242;9.060;2022-08-02T13:47:04;3.47;;;2.60;;
55362;SDS011;41244;49.242;9.060;2022-08-02T13:49:32;2.80;;;2.60;;
55362;SDS011;41244;49.242;9.060;2022-08-02T13:51:58;2.65;;;2.45;;
55362;SDS011;41244;49.242;9.060;2022-08-02T13:54:23;2.80;;;2.58;;
55362;SDS011;41244;49.242;9.060;2022-08-02T13:56:49;3.88;;;2.60;;
55362;SDS011;41244;49.242;9.060;2022-08-02T13:59:15;6.15;;;2.50;;
55362;SDS011;41244;49.242;9.060;2022-08-02T14:01:41;2.95;;;2.70;;
55362;SDS011;41244;49.242;9.060;2022-08-02T14:04:06;2.97;;;2.70;;
55362;SDS011;41244;49.242;9.060;2022-08-02T14:06:32;2.70;;;2.50;;
55362;SDS011;41244;49.242;9.060;2022-08-02T14:08:59;4.13;;;2.70;;
55362;SDS011;41244;49.242;9.060;2022-08-02T14:11:25;2.63;;;2.42;;
55362;SDS011;41244;49.242;9.060;2022-08-02T14:13:51;3.95;;;2.58;;
55362;SDS011;41244;49.242;9.060;2022-08-02T14:16:16;3.13;;;2.78;;
55362;SDS011;41244;49.242;9.060;2022-08-02T14:18:42;4.72;;;2.67;;
55362;SDS011;41244;49.242;9.060;2022-08-02T14:21:08;2.90;;;2.65;;
55362;SDS011;41244;49.242;9.060;2022-08-02T14:23:34;3.67;;;2.67;;
55362;SDS011;41244;49.242;9.060;2022-08-02T14:25:59;2.70;;;2.50;;
55362;SDS011;41244;49.242;9.060;2022-08-02T14:28:25;3.00;;;2.70;;
55362;SDS011;41244;49.242;9.060;2022-08-02T14:30:51;2.78;;;2.58;;
55362;SDS011;41244;49.242;9.060;2022-08-02T14:33:17;3.60;;;2.65;;
55362;SDS011;41244;49.242;9.060;2022-08-02T14:35:43;2.72;;;2.53;;
55362;SDS011;41244;49.242;9.060;2022-08-02T14:38:08;3.25;;;2.60;;
55362;SDS011;41244;49.242;9.060;2022-08-02T14:40:34;4.13;;;2.50;;
55362;SDS011;41244;49.242;9.060;2022-08-02T14:43:00;2.80;;;2.60;;
55362;SDS011;41244;49.242;9.060;2022-08-02T14:45:26;2.70;;;2.50;;
55362;SDS011;41244;49.242;9.060;2022-08-02T14:47:53;2.47;;;2.35;;
55362;SDS011;41244;49.242;9.060;2022-08-02T14:50:20;4.97;;;3.72;;
55362;SDS011;41244;49.242;9.060;2022-08-02T14:52:47;7.70;;;5.63;;
55362;SDS011;41244;49.242;9.060;2022-08-02T14:55:13;2.97;;;2.67;;
55362;SDS011;41244;49.242;9.060;2022-08-02T14:57:39;2.97;;;2.67;;
55362;SDS011;41244;49.242;9.060;2022-08-02T15:00:05;6.00;;;2.83;;
55362;SDS011;41244;49.242;9.060;2022-08-02T15:02:33;3.55;;;2.63;;
55362;SDS011;41244;49.242;9.060;2022-08-02T15:04:58;2.88;;;2.67;;
55362;SDS011;41244;49.242;9.060;2022-08-02T15:07:24;5.85;;;2.58;;
55362;SDS011;41244;49.242;9.060;2022-08-02T15:09:50;2.50;;;2.40;;
55362;SDS011;41244;49.242;9.060;2022-08-02T15:12:16;3.35;;;2.67;;
55362;SDS011;41244;49.242;9.060;2022-08-02T15:14:42;2.60;;;2.40;;
55362;SDS011;41244;49.242;9.060;2022-08-02T15:17:08;5.50;;;3.83;;
55362;SDS011;41244;49.242;9.060;2022-08-02T15:19:34;4.43;;;2.80;;
55362;SDS011;41244;49.242;9.060;2022-08-02T15:22:00;3.15;;;2.85;;
55362;SDS011;41244;49.242;9.060;2022-08-02T15:24:26;10.23;;;6.03;;
55362;SDS011;41244;49.242;9.060;2022-08-02T15:26:52;3.40;;;2.90;;
55362;SDS011;41244;49.242;9.060;2022-08-02T15:29:18;3.33;;;3.03;;
55362;SDS011;41244;49.242;9.060;2022-08-02T15:31:45;7.40;;;3.00;;
55362;SDS011;41244;49.242;9.060;2022-08-02T15:34:11;2.90;;;2.70;;
55362;SDS011;41244;49.242;9.060;2022-08-02T15:36:37;3.33;;;2.80;;
55362;SDS011;41244;49.242;9.060;2022-08-02T15:39:03;3.45;;;2.85;;
55362;SDS011;41244;49.242;9.060;2022-08-02T15:41:29;4.25;;;3.85;;
55362;SDS011;41244;49.242;9.060;2022-08-02T15:43:56;3.10;;;2.80;;
55362;SDS011;41244;49.242;9.060;2022-08-02T15:46:22;3.33;;;3.03;;
55362;SDS011;41244;49.242;9.060;2022-08-02T15:48:48;2.70;;;2.50;;
55362;SDS011;41244;49.242;9.060;2022-08-02T15:51:13;2.92;;;2.60;;
55362;SDS011;41244;49.242;9.060;2022-08-02T15:53:39;3.00;;;2.70;;
55362;SDS011;41244;49.242;9.060;2022-08-02T15:56:05;5.53;;;3.55;;
55362;SDS011;41244;49.242;9.060;2022-08-02T15:58:32;3.35;;;3.05;;
55362;SDS011;41244;49.242;9.060;2022-08-02T16:00:58;4.07;;;2.78;;
55362;SDS011;41244;49.242;9.060;2022-08-02T16:03:23;3.00;;;2.70;;
55362;SDS011;41244;49.242;9.060;2022-08-02T16:05:49;4.57;;;2.75;;
55362;SDS011;41244;49.242;9.060;2022-08-02T16:08:15;4.20;;;3.47;;
55362;SDS011;41244;49.242;9.060;2022-08-02T16:10:41;4.90;;;2.92;;
55362;SDS011;41244;49.242;9.060;2022-08-02T16:13:08;2.80;;;2.60;;
55362;SDS011;41244;49.242;9.060;2022-08-02T16:15:52;3.78;;;2.70;;
55362;SDS011;41244;49.242;9.060;2022-08-02T16:18:18;2.90;;;2.70;;
55362;SDS011;41244;49.242;9.060;2022-08-02T16:20:44;3.90;;;2.65;;
55362;SDS011;41244;49.242;9.060;2022-08-02T16:23:09;2.90;;;2.50;;
55362;SDS011;41244;49.242;9.060;2022-08-02T16:25:37;4.25;;;2.50;;
55362;SDS011;41244;49.242;9.060;2022-08-02T16:28:03;3.30;;;2.72;;
55362;SDS011;41244;49.242;9.060;2022-08-02T16:30:29;4.07;;;2.65;;
55362;SDS011;41244;49.242;9.060;2022-08-02T16:32:55;2.95;;;2.67;;